sensor_id;sensor_type;location;lat;lon;timestamp;temperature;humidity
25923;DHT22;13725;51.170;4.442;2023-07-31T00:01:00;17.00;99.90
25923;DHT22;13725;51.170;4.442;2023-07-31T00:03:26;16.90;99.90
25923;DHT22;13725;51.170;4.442;2023-07-31T00:05:51;16.90;99.90
25923;DHT22;13725;51.170;4.442;2023-07-31T00:08:17;16.90;99.90
25923;DHT22;13725;51.170;4.442;2023-07-31T00:10:43;17.00;99.90
25923;DHT22;13725;51.170;4.442;2023-07-31T00:13:08;17.00;99.90
25923;DHT22;13725;51.170;4.442;2023-07-31T00:15:34;17.00;99.90
25923;DHT22;13725;51.170;4.442;2023-07-31T00:18:00;16.90;99.90
25923;DHT22;13725;51.170;4.442;2023-07-31T00:20:27;17.00;99.90
25923;DHT22;13725;51.170;4.442;2023-07-31T00:22:53;17.00;99.90
25923;DHT22;13725;51.170;4.442;2023-07-31T00:25:19;16.80;99.90
25923;DHT22;13725;51.170;4.442;2023-07-31T00:27:44;16.80;99.90
25923;DHT22;13725;51.170;4.442;2023-07-31T00:30:12;16.90;99.90
25923;DHT22;13725;51.170;4.442;2023-07-31T00:32:37;16.90;99.90
25923;DHT22;13725;51.170;4.442;2023-07-31T00:35:03;17.00;99.90
25923;DHT22;13725;51.170;4.442;2023-07-31T00:37:30;16.90;99.90
25923;DHT22;13725;51.170;4.442;2023-07-31T00:39:56;16.90;99.90
25923;DHT22;13725;51.170;4.442;2023-07-31T00:42:21;16.90;99.90
25923;DHT22;13725;51.170;4.442;2023-07-31T00:44:48;16.90;99.90
25923;DHT22;13725;51.170;4.442;2023-07-31T00:47:14;17.10;99.90
25923;DHT22;13725;51.170;4.442;2023-07-31T00:49:40;17.00;99.90
25923;DHT22;13725;51.170;4.442;2023-07-31T00:52:07;17.00;99.90
25923;DHT22;13725;51.170;4.442;2023-07-31T00:54:33;17.00;99.90
25923;DHT22;13725;51.170;4.442;2023-07-31T00:56:59;17.00;99.90
25923;DHT22;13725;51.170;4.442;2023-07-31T00:59:25;17.00;99.90
25923;DHT22;13725;51.170;4.442;2023-07-31T01:01:51;17.00;99.90
25923;DHT22;13725;51.170;4.442;2023-07-31T01:04:18;17.00;99.90
25923;DHT22;13725;51.170;4.442;2023-07-31T01:07:00;17.00;99.90
25923;DHT22;13725;51.170;4.442;2023-07-31T01:12:17;17.00;99.90
25923;DHT22;13725;51.170;4.442;2023-07-31T01:15:01;17.00;99.90
25923;DHT22;13725;51.170;4.442;2023-07-31T01:17:27;17.10;99.90
25923;DHT22;13725;51.170;4.442;2023-07-31T01:19:54;17.10;99.90
25923;DHT22;13725;51.170;4.442;2023-07-31T01:25:35;17.10;99.90
25923;DHT22;13725;51.170;4.442;2023-07-31T01:28:10;17.10;99.90
25923;DHT22;13725;51.170;4.442;2023-07-31T01:30:41;17.10;99.90
25923;DHT22;13725;51.170;4.442;2023-07-31T01:33:09;17.10;99.90
25923;DHT22;13725;51.170;4.442;2023-07-31T01:35:36;17.10;99.90
25923;DHT22;13725;51.170;4.442;2023-07-31T01:38:02;17.20;99.90
25923;DHT22;13725;51.170;4.442;2023-07-31T01:40:27;17.20;99.90
25923;DHT22;13725;51.170;4.442;2023-07-31T01:42:53;17.20;99.90
25923;DHT22;13725;51.170;4.442;2023-07-31T01:45:19;17.30;99.90
25923;DHT22;13725;51.170;4.442;2023-07-31T01:47:45;17.10;99.90
25923;DHT22;13725;51.170;4.442;2023-07-31T01:50:11;17.10;99.90
25923;DHT22;13725;51.170;4.442;2023-07-31T01:52:37;17.40;99.90
25923;DHT22;13725;51.170;4.442;2023-07-31T01:55:03;17.20;99.90
25923;DHT22;13725;51.170;4.442;2023-07-31T01:57:29;17.30;99.90
25923;DHT22;13725;51.170;4.442;2023-07-31T01:59:55;17.20;99.90
25923;DHT22;13725;51.170;4.442;2023-07-31T02:02:21;17.20;99.90
25923;DHT22;13725;51.170;4.442;2023-07-31T02:04:48;17.30;99.90
25923;DHT22;13725;51.170;4.442;2023-07-31T02:07:14;17.40;99.90
25923;DHT22;13725;51.170;4.442;2023-07-31T02:09:40;17.40;99.90
25923;DHT22;13725;51.170;4.442;2023-07-31T02:12:06;17.40;99.90
25923;DHT22;13725;51.170;4.442;2023-07-31T02:14:34;17.40;99.90
25923;DHT22;13725;51.170;4.442;2023-07-31T02:17:00;17.30;99.90
25923;DHT22;13725;51.170;4.442;2023-07-31T02:19:26;17.30;99.90
25923;DHT22;13725;51.170;4.442;2023-07-31T02:21:52;17.20;99.90
25923;DHT22;13725;51.170;4.442;2023-07-31T02:24:17;17.20;99.90
25923;DHT22;13725;51.170;4.442;2023-07-31T02:26:43;17.30;99.90
25923;DHT22;13725;51.170;4.442;2023-07-31T02:29:09;17.30;99.90
25923;DHT22;13725;51.170;4.442;2023-07-31T02:31:35;17.30;99.90
25923;DHT22;13725;51.170;4.442;2023-07-31T02:34:00;17.30;99.90
25923;DHT22;13725;51.170;4.442;2023-07-31T02:36:26;17.30;99.90
25923;DHT22;13725;51.170;4.442;2023-07-31T02:38:52;17.40;99.90
25923;DHT22;13725;51.170;4.442;2023-07-31T02:41:17;17.40;99.90
25923;DHT22;13725;51.170;4.442;2023-07-31T02:43:43;17.50;99.90
25923;DHT22;13725;51.170;4.442;2023-07-31T02:46:09;17.50;99.90
25923;DHT22;13725;51.170;4.442;2023-07-31T02:48:35;17.50;99.90
25923;DHT22;13725;51.170;4.442;2023-07-31T02:51:00;17.50;99.90
25923;DHT22;13725;51.170;4.442;2023-07-31T02:53:26;17.60;99.90
25923;DHT22;13725;51.170;4.442;2023-07-31T02:55:52;17.60;99.90
25923;DHT22;13725;51.170;4.442;2023-07-31T02:58:18;17.70;99.90
25923;DHT22;13725;51.170;4.442;2023-07-31T03:00:44;17.60;99.90
25923;DHT22;13725;51.170;4.442;2023-07-31T03:03:11;17.60;99.90
25923;DHT22;13725;51.170;4.442;2023-07-31T03:05:37;17.60;99.90
25923;DHT22;13725;51.170;4.442;2023-07-31T03:08:03;17.70;99.90
25923;DHT22;13725;51.170;4.442;2023-07-31T03:10:29;17.70;99.90
25923;DHT22;13725;51.170;4.442;2023-07-31T03:12:55;17.60;99.90
25923;DHT22;13725;51.170;4.442;2023-07-31T03:15:21;17.60;99.90
25923;DHT22;13725;51.170;4.442;2023-07-31T03:17:46;17.60;99.90
25923;DHT22;13725;51.170;4.442;2023-07-31T03:20:12;17.70;99.90
25923;DHT22;13725;51.170;4.442;2023-07-31T03:22:38;17.70;99.90
25923;DHT22;13725;51.170;4.442;2023-07-31T03:25:04;17.80;99.90
25923;DHT22;13725;51.170;4.442;2023-07-31T03:27:30;17.80;99.90
25923;DHT22;13725;51.170;4.442;2023-07-31T03:29:56;17.80;99.90
25923;DHT22;13725;51.170;4.442;2023-07-31T03:32:22;17.70;99.90
25923;DHT22;13725;51.170;4.442;2023-07-31T03:34:49;17.80;99.90
25923;DHT22;13725;51.170;4.442;2023-07-31T03:37:15;17.80;99.90
25923;DHT22;13725;51.170;4.442;2023-07-31T03:39:40;17.70;99.90
25923;DHT22;13725;51.170;4.442;2023-07-31T03:42:06;17.70;99.90
25923;DHT22;13725;51.170;4.442;2023-07-31T03:44:32;17.80;99.90
25923;DHT22;13725;51.170;4.442;2023-07-31T03:46:58;17.70;99.90
25923;DHT22;13725;51.170;4.442;2023-07-31T03:49:24;17.70;99.90
25923;DHT22;13725;51.170;4.442;2023-07-31T03:51:50;17.80;99.90
25923;DHT22;13725;51.170;4.442;2023-07-31T03:54:15;17.80;99.90
25923;DHT22;13725;51.170;4.442;2023-07-31T03:56:41;17.80;99.90
25923;DHT22;13725;51.170;4.442;2023-07-31T03:59:07;17.80;99.90
25923;DHT22;13725;51.170;4.442;2023-07-31T04:01:33;17.80;99.90
25923;DHT22;13725;51.170;4.442;2023-07-31T04:03:59;17.80;99.90
25923;DHT22;13725;51.170;4.442;2023-07-31T04:06:24;17.60;99.90
25923;DHT22;13725;51.170;4.442;2023-07-31T04:08:50;17.60;99.90
25923;DHT22;13725;51.170;4.442;2023-07-31T04:11:16;17.50;99.90
25923;DHT22;13725;51.170;4.442;2023-07-31T04:13:42;17.50;99.90
25923;DHT22;13725;51.170;4.442;2023-07-31T04:16:08;17.40;99.90
25923;DHT22;13725;51.170;4.442;2023-07-31T04:18:33;17.30;99.90
25923;DHT22;13725;51.170;4.442;2023-07-31T04:20:59;17.20;99.90
25923;DHT22;13725;51.170;4.442;2023-07-31T04:23:26;17.20;99.90
25923;DHT22;13725;51.170;4.442;2023-07-31T04:25:52;17.20;99.90
25923;DHT22;13725;51.170;4.442;2023-07-31T04:28:18;17.10;99.90
25923;DHT22;13725;51.170;4.442;2023-07-31T04:30:44;17.10;99.90
25923;DHT22;13725;51.170;4.442;2023-07-31T04:33:09;17.00;99.90
25923;DHT22;13725;51.170;4.442;2023-07-31T04:35:35;17.10;99.90
25923;DHT22;13725;51.170;4.442;2023-07-31T04:38:01;17.10;99.90
25923;DHT22;13725;51.170;4.442;2023-07-31T04:40:27;17.10;99.90
25923;DHT22;13725;51.170;4.442;2023-07-31T04:42:53;17.10;99.90
25923;DHT22;13725;51.170;4.442;2023-07-31T04:45:18;17.10;99.90
25923;DHT22;13725;51.170;4.442;2023-07-31T04:47:45;17.10;99.90
25923;DHT22;13725;51.170;4.442;2023-07-31T04:50:11;17.10;99.90
25923;DHT22;13725;51.170;4.442;2023-07-31T04:52:37;17.20;99.90
25923;DHT22;13725;51.170;4.442;2023-07-31T04:55:02;17.20;99.90
25923;DHT22;13725;51.170;4.442;2023-07-31T04:57:28;17.20;99.90
25923;DHT22;13725;51.170;4.442;2023-07-31T04:59:54;17.10;99.90
25923;DHT22;13725;51.170;4.442;2023-07-31T05:02:20;17.10;99.90
25923;DHT22;13725;51.170;4.442;2023-07-31T05:04:46;17.10;99.90
25923;DHT22;13725;51.170;4.442;2023-07-31T05:07:12;17.10;99.90
25923;DHT22;13725;51.170;4.442;2023-07-31T05:09:37;17.00;99.90
25923;DHT22;13725;51.170;4.442;2023-07-31T05:12:05;17.00;99.90
25923;DHT22;13725;51.170;4.442;2023-07-31T05:14:31;17.00;99.90
25923;DHT22;13725;51.170;4.442;2023-07-31T05:16:57;17.00;99.90
25923;DHT22;13725;51.170;4.442;2023-07-31T05:19:22;17.00;99.90
25923;DHT22;13725;51.170;4.442;2023-07-31T05:21:48;17.00;99.90
25923;DHT22;13725;51.170;4.442;2023-07-31T05:24:14;17.00;99.90
25923;DHT22;13725;51.170;4.442;2023-07-31T05:26:40;17.00;99.90
25923;DHT22;13725;51.170;4.442;2023-07-31T05:29:05;17.00;99.90
25923;DHT22;13725;51.170;4.442;2023-07-31T05:31:31;17.10;99.90
25923;DHT22;13725;51.170;4.442;2023-07-31T05:33:58;17.10;99.90
25923;DHT22;13725;51.170;4.442;2023-07-31T05:36:23;17.10;99.90
25923;DHT22;13725;51.170;4.442;2023-07-31T05:38:49;17.10;99.90
25923;DHT22;13725;51.170;4.442;2023-07-31T05:41:15;17.10;99.90
25923;DHT22;13725;51.170;4.442;2023-07-31T05:43:41;17.10;99.90
25923;DHT22;13725;51.170;4.442;2023-07-31T05:46:08;17.10;99.90
25923;DHT22;13725;51.170;4.442;2023-07-31T05:48:35;17.10;99.90
25923;DHT22;13725;51.170;4.442;2023-07-31T05:51:00;17.00;99.90
25923;DHT22;13725;51.170;4.442;2023-07-31T05:53:26;17.10;99.90
25923;DHT22;13725;51.170;4.442;2023-07-31T05:55:52;17.10;99.90
25923;DHT22;13725;51.170;4.442;2023-07-31T05:58:18;17.10;99.90
25923;DHT22;13725;51.170;4.442;2023-07-31T06:00:43;17.00;99.90
25923;DHT22;13725;51.170;4.442;2023-07-31T06:03:09;17.00;99.90
25923;DHT22;13725;51.170;4.442;2023-07-31T06:05:35;17.20;99.90
25923;DHT22;13725;51.170;4.442;2023-07-31T06:08:01;17.10;99.90
25923;DHT22;13725;51.170;4.442;2023-07-31T06:10:27;17.20;99.90
25923;DHT22;13725;51.170;4.442;2023-07-31T06:12:53;17.20;99.90
25923;DHT22;13725;51.170;4.442;2023-07-31T06:15:20;17.20;99.90
25923;DHT22;13725;51.170;4.442;2023-07-31T06:17:45;17.20;99.90
25923;DHT22;13725;51.170;4.442;2023-07-31T06:20:11;17.30;99.90
25923;DHT22;13725;51.170;4.442;2023-07-31T06:22:37;17.30;99.90
25923;DHT22;13725;51.170;4.442;2023-07-31T06:25:03;17.40;99.90
25923;DHT22;13725;51.170;4.442;2023-07-31T06:27:30;17.40;99.90
25923;DHT22;13725;51.170;4.442;2023-07-31T06:29:55;17.50;99.90
25923;DHT22;13725;51.170;4.442;2023-07-31T06:32:21;17.60;99.90
25923;DHT22;13725;51.170;4.442;2023-07-31T06:34:47;17.60;99.90
25923;DHT22;13725;51.170;4.442;2023-07-31T06:37:13;17.60;99.90
25923;DHT22;13725;51.170;4.442;2023-07-31T06:39:38;17.60;99.90
25923;DHT22;13725;51.170;4.442;2023-07-31T06:42:04;17.70;99.90
25923;DHT22;13725;51.170;4.442;2023-07-31T06:44:30;17.70;99.90
25923;DHT22;13725;51.170;4.442;2023-07-31T06:46:56;17.80;99.90
25923;DHT22;13725;51.170;4.442;2023-07-31T06:49:22;17.80;99.90
25923;DHT22;13725;51.170;4.442;2023-07-31T06:51:47;17.90;99.90
25923;DHT22;13725;51.170;4.442;2023-07-31T06:54:13;17.80;99.90
25923;DHT22;13725;51.170;4.442;2023-07-31T06:56:39;17.80;99.90
25923;DHT22;13725;51.170;4.442;2023-07-31T06:59:05;17.90;99.90
25923;DHT22;13725;51.170;4.442;2023-07-31T07:01:31;17.90;99.90
25923;DHT22;13725;51.170;4.442;2023-07-31T07:03:56;17.90;99.90
25923;DHT22;13725;51.170;4.442;2023-07-31T07:06:22;17.90;99.90
25923;DHT22;13725;51.170;4.442;2023-07-31T07:08:48;17.90;99.90
25923;DHT22;13725;51.170;4.442;2023-07-31T07:11:14;17.90;99.90
25923;DHT22;13725;51.170;4.442;2023-07-31T07:13:41;17.80;99.90
25923;DHT22;13725;51.170;4.442;2023-07-31T07:16:12;17.70;99.90
25923;DHT22;13725;51.170;4.442;2023-07-31T07:18:39;17.70;99.90
25923;DHT22;13725;51.170;4.442;2023-07-31T07:21:05;17.70;99.90
25923;DHT22;13725;51.170;4.442;2023-07-31T07:23:31;17.60;99.90
25923;DHT22;13725;51.170;4.442;2023-07-31T07:25:56;17.70;99.90
25923;DHT22;13725;51.170;4.442;2023-07-31T07:28:22;17.70;99.90
25923;DHT22;13725;51.170;4.442;2023-07-31T07:30:54;17.70;99.90
25923;DHT22;13725;51.170;4.442;2023-07-31T07:33:20;17.80;99.90
25923;DHT22;13725;51.170;4.442;2023-07-31T07:35:47;17.70;99.90
25923;DHT22;13725;51.170;4.442;2023-07-31T07:38:14;17.70;99.90
25923;DHT22;13725;51.170;4.442;2023-07-31T07:40:40;17.70;99.90
25923;DHT22;13725;51.170;4.442;2023-07-31T07:43:06;17.70;99.90
25923;DHT22;13725;51.170;4.442;2023-07-31T07:45:33;17.80;99.90
25923;DHT22;13725;51.170;4.442;2023-07-31T07:47:59;17.90;99.90
25923;DHT22;13725;51.170;4.442;2023-07-31T07:50:25;18.00;99.90
25923;DHT22;13725;51.170;4.442;2023-07-31T07:52:50;18.10;99.90
25923;DHT22;13725;51.170;4.442;2023-07-31T07:55:16;18.10;99.90
25923;DHT22;13725;51.170;4.442;2023-07-31T07:57:42;18.10;99.90
25923;DHT22;13725;51.170;4.442;2023-07-31T08:00:10;18.30;99.90
25923;DHT22;13725;51.170;4.442;2023-07-31T08:02:42;18.60;99.90
25923;DHT22;13725;51.170;4.442;2023-07-31T08:05:08;18.90;99.90
25923;DHT22;13725;51.170;4.442;2023-07-31T08:07:34;19.20;99.90
25923;DHT22;13725;51.170;4.442;2023-07-31T08:09:59;19.60;99.90
25923;DHT22;13725;51.170;4.442;2023-07-31T08:12:25;20.10;99.90
25923;DHT22;13725;51.170;4.442;2023-07-31T08:14:51;20.20;99.90
25923;DHT22;13725;51.170;4.442;2023-07-31T08:17:17;20.20;99.90
25923;DHT22;13725;51.170;4.442;2023-07-31T08:19:43;20.10;99.90
25923;DHT22;13725;51.170;4.442;2023-07-31T08:22:09;20.20;99.90
25923;DHT22;13725;51.170;4.442;2023-07-31T08:24:35;20.30;99.90
25923;DHT22;13725;51.170;4.442;2023-07-31T08:27:01;20.30;99.90
25923;DHT22;13725;51.170;4.442;2023-07-31T08:29:26;20.10;99.90
25923;DHT22;13725;51.170;4.442;2023-07-31T08:31:52;20.10;99.90
25923;DHT22;13725;51.170;4.442;2023-07-31T08:34:18;20.00;99.90
25923;DHT22;13725;51.170;4.442;2023-07-31T08:36:44;20.00;99.90
25923;DHT22;13725;51.170;4.442;2023-07-31T08:39:10;20.00;99.90
25923;DHT22;13725;51.170;4.442;2023-07-31T08:41:39;20.10;99.90
25923;DHT22;13725;51.170;4.442;2023-07-31T08:44:06;20.10;99.90
25923;DHT22;13725;51.170;4.442;2023-07-31T08:46:32;20.20;99.90
25923;DHT22;13725;51.170;4.442;2023-07-31T08:48:59;20.30;99.90
25923;DHT22;13725;51.170;4.442;2023-07-31T08:51:26;20.20;99.90
25923;DHT22;13725;51.170;4.442;2023-07-31T08:53:53;20.10;99.90
25923;DHT22;13725;51.170;4.442;2023-07-31T08:56:19;20.10;99.90
25923;DHT22;13725;51.170;4.442;2023-07-31T08:58:46;20.00;99.90
25923;DHT22;13725;51.170;4.442;2023-07-31T09:01:15;20.10;99.90
25923;DHT22;13725;51.170;4.442;2023-07-31T09:03:41;20.10;99.90
25923;DHT22;13725;51.170;4.442;2023-07-31T09:06:10;20.20;99.90
25923;DHT22;13725;51.170;4.442;2023-07-31T09:08:38;20.40;99.90
25923;DHT22;13725;51.170;4.442;2023-07-31T09:11:06;20.60;99.90
25923;DHT22;13725;51.170;4.442;2023-07-31T09:13:33;21.00;99.90
25923;DHT22;13725;51.170;4.442;2023-07-31T09:15:59;21.50;99.90
25923;DHT22;13725;51.170;4.442;2023-07-31T09:18:25;21.80;99.90
25923;DHT22;13725;51.170;4.442;2023-07-31T09:21:04;21.90;99.90
25923;DHT22;13725;51.170;4.442;2023-07-31T09:23:43;22.20;99.90
25923;DHT22;13725;51.170;4.442;2023-07-31T09:26:10;22.00;99.90
25923;DHT22;13725;51.170;4.442;2023-07-31T09:28:36;22.00;99.90
25923;DHT22;13725;51.170;4.442;2023-07-31T09:31:01;22.10;99.90
25923;DHT22;13725;51.170;4.442;2023-07-31T09:33:27;22.60;99.90
25923;DHT22;13725;51.170;4.442;2023-07-31T09:35:53;22.80;99.90
25923;DHT22;13725;51.170;4.442;2023-07-31T09:38:19;22.70;99.90
25923;DHT22;13725;51.170;4.442;2023-07-31T09:40:48;22.80;99.90
25923;DHT22;13725;51.170;4.442;2023-07-31T09:43:19;22.70;99.90
25923;DHT22;13725;51.170;4.442;2023-07-31T09:45:46;22.70;99.90
25923;DHT22;13725;51.170;4.442;2023-07-31T09:48:13;22.80;99.90
25923;DHT22;13725;51.170;4.442;2023-07-31T09:50:46;22.90;99.90
25923;DHT22;13725;51.170;4.442;2023-07-31T09:53:12;23.40;99.90
25923;DHT22;13725;51.170;4.442;2023-07-31T09:55:41;23.30;99.90
25923;DHT22;13725;51.170;4.442;2023-07-31T09:58:09;22.90;99.90
25923;DHT22;13725;51.170;4.442;2023-07-31T10:00:35;22.60;99.90
25923;DHT22;13725;51.170;4.442;2023-07-31T10:03:04;22.40;99.90
25923;DHT22;13725;51.170;4.442;2023-07-31T10:05:34;21.60;99.90
25923;DHT22;13725;51.170;4.442;2023-07-31T10:08:00;21.20;99.90
25923;DHT22;13725;51.170;4.442;2023-07-31T10:10:27;21.10;99.90
25923;DHT22;13725;51.170;4.442;2023-07-31T10:12:53;21.20;99.90
25923;DHT22;13725;51.170;4.442;2023-07-31T10:15:20;21.20;99.90
25923;DHT22;13725;51.170;4.442;2023-07-31T10:17:49;21.10;99.90
25923;DHT22;13725;51.170;4.442;2023-07-31T10:20:16;21.10;99.90
25923;DHT22;13725;51.170;4.442;2023-07-31T10:22:43;21.00;99.90
25923;DHT22;13725;51.170;4.442;2023-07-31T10:25:10;21.00;99.90
25923;DHT22;13725;51.170;4.442;2023-07-31T10:27:38;21.10;99.90
25923;DHT22;13725;51.170;4.442;2023-07-31T10:30:06;21.40;99.90
25923;DHT22;13725;51.170;4.442;2023-07-31T10:32:33;21.60;99.90
25923;DHT22;13725;51.170;4.442;2023-07-31T10:35:01;21.60;99.90
25923;DHT22;13725;51.170;4.442;2023-07-31T10:37:29;21.50;99.90
25923;DHT22;13725;51.170;4.442;2023-07-31T10:39:56;21.50;99.90
25923;DHT22;13725;51.170;4.442;2023-07-31T10:42:31;21.30;99.90
25923;DHT22;13725;51.170;4.442;2023-07-31T10:45:03;21.00;99.90
25923;DHT22;13725;51.170;4.442;2023-07-31T10:47:29;21.00;99.90
25923;DHT22;13725;51.170;4.442;2023-07-31T10:50:22;21.10;99.90
25923;DHT22;13725;51.170;4.442;2023-07-31T10:52:53;21.00;99.90
25923;DHT22;13725;51.170;4.442;2023-07-31T10:55:40;20.90;99.90
25923;DHT22;13725;51.170;4.442;2023-07-31T10:58:08;20.80;99.90
25923;DHT22;13725;51.170;4.442;2023-07-31T11:00:37;20.90;99.90
25923;DHT22;13725;51.170;4.442;2023-07-31T11:03:05;21.00;99.90
25923;DHT22;13725;51.170;4.442;2023-07-31T11:05:43;20.90;99.90
25923;DHT22;13725;51.170;4.442;2023-07-31T11:08:20;20.90;99.90
25923;DHT22;13725;51.170;4.442;2023-07-31T11:10:47;21.10;99.90
25923;DHT22;13725;51.170;4.442;2023-07-31T11:13:13;21.50;99.90
25923;DHT22;13725;51.170;4.442;2023-07-31T11:15:39;21.80;99.90
25923;DHT22;13725;51.170;4.442;2023-07-31T11:18:06;21.90;99.90
25923;DHT22;13725;51.170;4.442;2023-07-31T11:20:34;21.60;99.90
25923;DHT22;13725;51.170;4.442;2023-07-31T11:23:07;21.40;99.90
25923;DHT22;13725;51.170;4.442;2023-07-31T11:25:34;21.30;99.90
25923;DHT22;13725;51.170;4.442;2023-07-31T11:28:10;21.10;99.90
25923;DHT22;13725;51.170;4.442;2023-07-31T11:30:37;21.10;99.90
25923;DHT22;13725;51.170;4.442;2023-07-31T11:33:04;21.00;99.90
25923;DHT22;13725;51.170;4.442;2023-07-31T11:35:35;21.10;99.90
25923;DHT22;13725;51.170;4.442;2023-07-31T11:38:02;21.20;99.90
25923;DHT22;13725;51.170;4.442;2023-07-31T11:40:28;21.10;99.90
25923;DHT22;13725;51.170;4.442;2023-07-31T11:43:04;21.10;99.90
25923;DHT22;13725;51.170;4.442;2023-07-31T11:45:30;21.20;99.90
25923;DHT22;13725;51.170;4.442;2023-07-31T11:47:56;21.20;99.90
25923;DHT22;13725;51.170;4.442;2023-07-31T11:50:23;21.20;99.90
25923;DHT22;13725;51.170;4.442;2023-07-31T11:52:54;21.00;99.90
25923;DHT22;13725;51.170;4.442;2023-07-31T11:55:24;20.90;99.90
25923;DHT22;13725;51.170;4.442;2023-07-31T11:57:50;20.70;99.90
25923;DHT22;13725;51.170;4.442;2023-07-31T12:00:17;20.60;99.90
25923;DHT22;13725;51.170;4.442;2023-07-31T12:02:43;20.80;99.90
25923;DHT22;13725;51.170;4.442;2023-07-31T12:05:13;21.00;99.90
25923;DHT22;13725;51.170;4.442;2023-07-31T12:10:30;21.30;99.90
25923;DHT22;13725;51.170;4.442;2023-07-31T12:15:43;21.60;99.90
25923;DHT22;13725;51.170;4.442;2023-07-31T12:18:13;22.50;99.90
25923;DHT22;13725;51.170;4.442;2023-07-31T12:20:47;23.00;99.90
25923;DHT22;13725;51.170;4.442;2023-07-31T12:23:22;23.10;99.90
25923;DHT22;13725;51.170;4.442;2023-07-31T12:26:06;23.10;99.90
25923;DHT22;13725;51.170;4.442;2023-07-31T12:28:46;23.30;99.90
25923;DHT22;13725;51.170;4.442;2023-07-31T12:31:20;23.30;99.90
25923;DHT22;13725;51.170;4.442;2023-07-31T12:33:47;23.40;99.90
25923;DHT22;13725;51.170;4.442;2023-07-31T12:36:15;23.30;99.90
25923;DHT22;13725;51.170;4.442;2023-07-31T12:38:42;23.10;99.90
25923;DHT22;13725;51.170;4.442;2023-07-31T12:41:08;22.80;99.90
25923;DHT22;13725;51.170;4.442;2023-07-31T12:43:38;22.60;99.90
25923;DHT22;13725;51.170;4.442;2023-07-31T12:46:05;22.40;99.90
25923;DHT22;13725;51.170;4.442;2023-07-31T12:48:31;22.00;99.90
25923;DHT22;13725;51.170;4.442;2023-07-31T12:50:57;21.70;99.90
25923;DHT22;13725;51.170;4.442;2023-07-31T12:53:23;21.70;99.90
25923;DHT22;13725;51.170;4.442;2023-07-31T12:55:49;21.70;99.90
25923;DHT22;13725;51.170;4.442;2023-07-31T12:58:15;21.80;99.90
25923;DHT22;13725;51.170;4.442;2023-07-31T13:00:41;21.70;99.90
25923;DHT22;13725;51.170;4.442;2023-07-31T13:03:08;21.80;99.90
25923;DHT22;13725;51.170;4.442;2023-07-31T13:05:34;21.90;99.90
25923;DHT22;13725;51.170;4.442;2023-07-31T13:08:00;21.80;99.90
25923;DHT22;13725;51.170;4.442;2023-07-31T13:10:27;21.90;99.90
25923;DHT22;13725;51.170;4.442;2023-07-31T13:12:54;21.90;99.90
25923;DHT22;13725;51.170;4.442;2023-07-31T13:15:20;21.70;99.90
25923;DHT22;13725;51.170;4.442;2023-07-31T13:17:46;21.40;99.90
25923;DHT22;13725;51.170;4.442;2023-07-31T13:20:12;21.30;99.90
25923;DHT22;13725;51.170;4.442;2023-07-31T13:22:39;21.20;99.90
25923;DHT22;13725;51.170;4.442;2023-07-31T13:25:06;20.90;99.90
25923;DHT22;13725;51.170;4.442;2023-07-31T13:27:32;20.70;99.90
25923;DHT22;13725;51.170;4.442;2023-07-31T13:29:58;20.70;99.90
25923;DHT22;13725;51.170;4.442;2023-07-31T13:32:23;20.60;99.90
25923;DHT22;13725;51.170;4.442;2023-07-31T13:34:49;20.40;99.90
25923;DHT22;13725;51.170;4.442;2023-07-31T13:37:15;20.30;99.90
25923;DHT22;13725;51.170;4.442;2023-07-31T13:39:42;20.30;99.90
25923;DHT22;13725;51.170;4.442;2023-07-31T13:42:08;20.10;99.90
25923;DHT22;13725;51.170;4.442;2023-07-31T13:44:41;20.00;99.90
25923;DHT22;13725;51.170;4.442;2023-07-31T13:47:08;19.80;99.90
25923;DHT22;13725;51.170;4.442;2023-07-31T13:49:35;19.70;99.90
25923;DHT22;13725;51.170;4.442;2023-07-31T13:52:02;19.60;99.90
25923;DHT22;13725;51.170;4.442;2023-07-31T13:54:28;19.50;99.90
25923;DHT22;13725;51.170;4.442;2023-07-31T13:56:54;19.50;99.90
25923;DHT22;13725;51.170;4.442;2023-07-31T13:59:20;19.50;99.90
25923;DHT22;13725;51.170;4.442;2023-07-31T14:01:46;19.40;99.90
25923;DHT22;13725;51.170;4.442;2023-07-31T14:04:12;19.40;99.90
25923;DHT22;13725;51.170;4.442;2023-07-31T14:06:38;19.30;99.90
25923;DHT22;13725;51.170;4.442;2023-07-31T14:09:04;19.30;99.90
25923;DHT22;13725;51.170;4.442;2023-07-31T14:11:34;19.20;99.90
25923;DHT22;13725;51.170;4.442;2023-07-31T14:14:00;19.10;99.90
25923;DHT22;13725;51.170;4.442;2023-07-31T14:16:27;19.10;99.90
25923;DHT22;13725;51.170;4.442;2023-07-31T14:18:54;19.10;99.90
25923;DHT22;13725;51.170;4.442;2023-07-31T14:21:20;19.00;99.90
25923;DHT22;13725;51.170;4.442;2023-07-31T14:23:46;19.00;99.90
25923;DHT22;13725;51.170;4.442;2023-07-31T14:26:12;18.90;99.90
25923;DHT22;13725;51.170;4.442;2023-07-31T14:28:38;18.90;99.90
25923;DHT22;13725;51.170;4.442;2023-07-31T14:31:04;18.80;99.90
25923;DHT22;13725;51.170;4.442;2023-07-31T14:33:30;18.60;99.90
25923;DHT22;13725;51.170;4.442;2023-07-31T14:35:56;18.70;99.90
25923;DHT22;13725;51.170;4.442;2023-07-31T14:38:22;18.70;99.90
25923;DHT22;13725;51.170;4.442;2023-07-31T14:40:47;18.70;99.90
25923;DHT22;13725;51.170;4.442;2023-07-31T14:43:13;18.70;99.90
25923;DHT22;13725;51.170;4.442;2023-07-31T14:45:39;18.60;99.90
25923;DHT22;13725;51.170;4.442;2023-07-31T14:48:05;18.70;99.90
25923;DHT22;13725;51.170;4.442;2023-07-31T14:50:31;18.60;99.90
25923;DHT22;13725;51.170;4.442;2023-07-31T14:52:57;18.70;99.90
25923;DHT22;13725;51.170;4.442;2023-07-31T14:55:23;18.60;99.90
25923;DHT22;13725;51.170;4.442;2023-07-31T14:57:49;18.60;99.90
25923;DHT22;13725;51.170;4.442;2023-07-31T15:00:15;18.60;99.90
25923;DHT22;13725;51.170;4.442;2023-07-31T15:02:41;18.60;99.90
25923;DHT22;13725;51.170;4.442;2023-07-31T15:05:07;18.60;99.90
25923;DHT22;13725;51.170;4.442;2023-07-31T15:07:33;18.50;99.90
25923;DHT22;13725;51.170;4.442;2023-07-31T15:10:00;18.50;99.90
25923;DHT22;13725;51.170;4.442;2023-07-31T15:12:26;18.50;99.90
25923;DHT22;13725;51.170;4.442;2023-07-31T15:14:53;18.60;99.90
25923;DHT22;13725;51.170;4.442;2023-07-31T15:17:19;18.60;99.90
25923;DHT22;13725;51.170;4.442;2023-07-31T15:19:45;18.50;99.90
25923;DHT22;13725;51.170;4.442;2023-07-31T15:22:11;18.40;99.90
25923;DHT22;13725;51.170;4.442;2023-07-31T15:24:37;18.40;99.90
25923;DHT22;13725;51.170;4.442;2023-07-31T15:27:03;18.40;99.90
25923;DHT22;13725;51.170;4.442;2023-07-31T15:29:30;18.40;99.90
25923;DHT22;13725;51.170;4.442;2023-07-31T15:31:56;18.40;99.90
25923;DHT22;13725;51.170;4.442;2023-07-31T15:34:22;18.50;99.90
25923;DHT22;13725;51.170;4.442;2023-07-31T15:36:48;18.50;99.90
25923;DHT22;13725;51.170;4.442;2023-07-31T15:39:14;18.60;99.90